N850CB KLAX-KSFO
Flight info
| Callsign | N850CB |
|---|---|
| Flight time | 0h 50m |
| Altitude | 36000 |
| Route | SUMMR2 STOKD DCT SERFR SERFR4 |
| Aircraft | C700/L-SDE2E3FGHUTRWXY/LB1 |
Departure
| Time | 2026-04-21 04:03 |
|---|---|
| Airport | Los Angeles International Airport (KLAX) |
Arrival
| Time | 2026-04-21 04:53 |
|---|---|
| Airport | San Francisco International Airport (KSFO) |
| Time | Latitude | Longitude | Altitude | Speed | Heading |
|---|---|---|---|---|---|
| 2026-04-21 03:51 | 33.93347 | -118.39502 | 120 ft | 0 kts | 55° |
| 2026-04-21 03:57 | 33.93351 | -118.39494 | 118 ft | 7 kts | 55° |
| 2026-04-21 03:58 | 33.93428 | -118.39392 | 119 ft | 17 kts | 50° |
| 2026-04-21 03:58 | 33.93509 | -118.39230 | 118 ft | 18 kts | 77° |
| 2026-04-21 03:58 | 33.93539 | -118.39003 | 119 ft | 37 kts | 84° |
| 2026-04-21 03:58 | 33.93575 | -118.38636 | 118 ft | 49 kts | 82° |
| 2026-04-21 03:59 | 33.93600 | -118.38375 | 116 ft | 16 kts | 82° |
| 2026-04-21 03:59 | 33.93608 | -118.38339 | 120 ft | 0 kts | 63° |
| 2026-04-21 04:00 | 33.93672 | -118.38281 | 117 ft | 25 kts | 7° |
| 2026-04-21 04:01 | 33.93730 | -118.38357 | 120 ft | 7 kts | 265° |
| 2026-04-21 04:01 | 33.93728 | -118.38373 | 120 ft | 0 kts | 262° |
| 2026-04-21 04:02 | 33.93725 | -118.38403 | 118 ft | 26 kts | 262° |
| 2026-04-21 04:02 | 33.93656 | -118.39043 | 122 ft | 124 kts | 261° |
| 2026-04-21 04:02 | 33.93529 | -118.40337 | 402 ft | 187 kts | 262° |
| 2026-04-21 04:03 | 33.93347 | -118.42105 | 1087 ft | 234 kts | 263° |
| 2026-04-21 04:03 | 33.93470 | -118.44095 | 1504 ft | 232 kts | 288° |
| 2026-04-21 04:03 | 33.94105 | -118.45762 | 1864 ft | 211 kts | 292° |
| 2026-04-21 04:03 | 33.94302 | -118.47400 | 2209 ft | 193 kts | 267° |
| 2026-04-21 04:04 | 33.94262 | -118.48972 | 2545 ft | 179 kts | 270° |
| 2026-04-21 04:04 | 33.94251 | -118.50398 | 2882 ft | 167 kts | 268° |
| 2026-04-21 04:04 | 33.94142 | -118.51761 | 3229 ft | 170 kts | 263° |
| 2026-04-21 04:04 | 33.94016 | -118.53431 | 3687 ft | 231 kts | 264° |
| 2026-04-21 04:05 | 33.93859 | -118.55537 | 4156 ft | 260 kts | 264° |
| 2026-04-21 04:05 | 33.93705 | -118.57631 | 4537 ft | 249 kts | 265° |
| 2026-04-21 04:05 | 33.93549 | -118.59791 | 4934 ft | 261 kts | 262° |
| 2026-04-21 04:05 | 33.93376 | -118.61922 | 5011 ft | 260 kts | 264° |
| 2026-04-21 04:06 | 33.93222 | -118.64193 | 5019 ft | 291 kts | 262° |
| 2026-04-21 04:06 | 33.92966 | -118.66850 | 5036 ft | 341 kts | 262° |
| 2026-04-21 04:06 | 33.92747 | -118.69519 | 5401 ft | 300 kts | 263° |
| 2026-04-21 04:06 | 33.92590 | -118.71874 | 6002 ft | 265 kts | 263° |
| 2026-04-21 04:07 | 33.92429 | -118.74010 | 6640 ft | 245 kts | 262° |
| 2026-04-21 04:07 | 33.92270 | -118.75979 | 7286 ft | 227 kts | 261° |
| 2026-04-21 04:07 | 33.92126 | -118.77801 | 7927 ft | 220 kts | 260° |
| 2026-04-21 04:07 | 33.91972 | -118.79695 | 8634 ft | 229 kts | 260° |
| 2026-04-21 04:08 | 33.91824 | -118.81609 | 9346 ft | 230 kts | 260° |
| 2026-04-21 04:08 | 33.91697 | -118.83526 | 10052 ft | 234 kts | 264° |
| 2026-04-21 04:08 | 33.91767 | -118.85515 | 10729 ft | 239 kts | 267° |
| 2026-04-21 04:08 | 33.91828 | -118.87609 | 11472 ft | 262 kts | 266° |
| 2026-04-21 04:09 | 33.91885 | -118.89923 | 12259 ft | 292 kts | 267° |
| 2026-04-21 04:09 | 33.91959 | -118.92523 | 13062 ft | 325 kts | 268° |
| 2026-04-21 04:09 | 33.92049 | -118.95258 | 13853 ft | 333 kts | 268° |
| 2026-04-21 04:09 | 33.92148 | -118.98079 | 14563 ft | 339 kts | 269° |
| 2026-04-21 04:10 | 33.92543 | -119.00897 | 15265 ft | 349 kts | 279° |
| 2026-04-21 04:10 | 33.93383 | -119.03686 | 15988 ft | 358 kts | 289° |
| 2026-04-21 04:10 | 33.94639 | -119.06322 | 16720 ft | 364 kts | 296° |
| 2026-04-21 04:10 | 33.95970 | -119.08872 | 17567 ft | 363 kts | 296° |
| 2026-04-21 04:11 | 33.97320 | -119.11497 | 18473 ft | 369 kts | 295° |
| 2026-04-21 04:11 | 33.98665 | -119.14119 | 19263 ft | 375 kts | 296° |
| 2026-04-21 04:11 | 34.00094 | -119.16780 | 20084 ft | 382 kts | 300° |
| 2026-04-21 04:11 | 34.01895 | -119.19209 | 20928 ft | 392 kts | 311° |
| 2026-04-21 04:12 | 34.04066 | -119.21288 | 21814 ft | 399 kts | 320° |
| 2026-04-21 04:12 | 34.06310 | -119.23192 | 22713 ft | 399 kts | 319° |
| 2026-04-21 04:12 | 34.08581 | -119.25141 | 23641 ft | 398 kts | 319° |
| 2026-04-21 04:12 | 34.10818 | -119.27076 | 24417 ft | 402 kts | 319° |
| 2026-04-21 04:13 | 34.13114 | -119.29056 | 25229 ft | 406 kts | 319° |
| 2026-04-21 04:13 | 34.15429 | -119.31044 | 26062 ft | 409 kts | 319° |
| 2026-04-21 04:13 | 34.17759 | -119.33049 | 26929 ft | 410 kts | 319° |
| 2026-04-21 04:13 | 34.20055 | -119.35029 | 27802 ft | 410 kts | 319° |
| 2026-04-21 04:14 | 34.22397 | -119.37051 | 28736 ft | 410 kts | 319° |
| 2026-04-21 04:14 | 34.24725 | -119.39061 | 29682 ft | 409 kts | 319° |
| 2026-04-21 04:14 | 34.27021 | -119.41044 | 30561 ft | 408 kts | 318° |
| 2026-04-21 04:14 | 34.29304 | -119.43017 | 31387 ft | 405 kts | 318° |
| 2026-04-21 04:15 | 34.31588 | -119.44993 | 32247 ft | 401 kts | 318° |
| 2026-04-21 04:15 | 34.33854 | -119.46954 | 33132 ft | 396 kts | 317° |
| 2026-04-21 04:15 | 34.36079 | -119.48881 | 34042 ft | 389 kts | 317° |
| 2026-04-21 04:15 | 34.38267 | -119.50777 | 34853 ft | 381 kts | 317° |
| 2026-04-21 04:16 | 34.40379 | -119.52614 | 35685 ft | 372 kts | 315° |
| 2026-04-21 04:16 | 34.42319 | -119.54694 | 35992 ft | 374 kts | 307° |
| 2026-04-21 04:16 | 34.44142 | -119.57010 | 36004 ft | 393 kts | 307° |
| 2026-04-21 04:16 | 34.46119 | -119.59442 | 36004 ft | 413 kts | 308° |
| 2026-04-21 04:17 | 34.48209 | -119.61970 | 35996 ft | 431 kts | 309° |
| 2026-04-21 04:17 | 34.50331 | -119.64569 | 36003 ft | 446 kts | 308° |
| 2026-04-21 04:17 | 34.52547 | -119.67320 | 35996 ft | 461 kts | 308° |
| 2026-04-21 04:18 | 34.57089 | -119.72905 | 35993 ft | 470 kts | 309° |
| 2026-04-21 04:18 | 34.61705 | -119.78609 | 35966 ft | 472 kts | 309° |
| 2026-04-21 04:19 | 34.66294 | -119.84287 | 35992 ft | 475 kts | 309° |
| 2026-04-21 04:19 | 34.70931 | -119.90026 | 35991 ft | 473 kts | 309° |
| 2026-04-21 04:20 | 34.75522 | -119.95728 | 35993 ft | 468 kts | 309° |
| 2026-04-21 04:20 | 34.80053 | -120.01364 | 35994 ft | 468 kts | 309° |
| 2026-04-21 04:21 | 34.84602 | -120.07024 | 35987 ft | 470 kts | 309° |
| 2026-04-21 04:21 | 34.89195 | -120.12760 | 35996 ft | 471 kts | 309° |
| 2026-04-21 04:22 | 34.93769 | -120.18475 | 35986 ft | 473 kts | 309° |
| 2026-04-21 04:22 | 34.98352 | -120.24209 | 35996 ft | 474 kts | 308° |
| 2026-04-21 04:23 | 35.02977 | -120.29996 | 35995 ft | 475 kts | 308° |
| 2026-04-21 04:23 | 35.07569 | -120.35783 | 35997 ft | 476 kts | 308° |
| 2026-04-21 04:24 | 35.12398 | -120.41335 | 35997 ft | 479 kts | 311° |
| 2026-04-21 04:24 | 35.17303 | -120.46831 | 35988 ft | 474 kts | 311° |
| 2026-04-21 04:25 | 35.22116 | -120.52230 | 35973 ft | 469 kts | 311° |
| 2026-04-21 04:25 | 35.26897 | -120.57608 | 35992 ft | 466 kts | 311° |
| 2026-04-21 04:26 | 35.31688 | -120.62998 | 35990 ft | 467 kts | 311° |
| 2026-04-21 04:26 | 35.36471 | -120.68390 | 35994 ft | 468 kts | 311° |
| 2026-04-21 04:27 | 35.41242 | -120.73779 | 35992 ft | 471 kts | 310° |
| 2026-04-21 04:27 | 35.46082 | -120.79253 | 35989 ft | 471 kts | 310° |
| 2026-04-21 04:28 | 35.51133 | -120.84394 | 35991 ft | 477 kts | 316° |
| 2026-04-21 04:28 | 35.56427 | -120.89310 | 35996 ft | 476 kts | 316° |
| 2026-04-21 04:29 | 35.61690 | -120.94199 | 36001 ft | 476 kts | 316° |
| 2026-04-21 04:29 | 35.66986 | -120.99122 | 35996 ft | 475 kts | 316° |
| 2026-04-21 04:30 | 35.72232 | -121.04013 | 35993 ft | 475 kts | 316° |
| 2026-04-21 04:30 | 35.76637 | -121.08122 | 35987 ft | 475 kts | 315° |
| 2026-04-21 04:31 | 35.82786 | -121.13875 | 35982 ft | 476 kts | 315° |
| 2026-04-21 04:31 | 35.88052 | -121.18803 | 35978 ft | 476 kts | 315° |
| 2026-04-21 04:32 | 35.92454 | -121.22936 | 35965 ft | 477 kts | 315° |
| 2026-04-21 04:32 | 35.96003 | -121.26276 | 35556 ft | 487 kts | 315° |
| 2026-04-21 04:32 | 35.97840 | -121.28005 | 35309 ft | 493 kts | 315° |
| 2026-04-21 04:32 | 36.00561 | -121.30561 | 34956 ft | 496 kts | 315° |
| 2026-04-21 04:33 | 36.04187 | -121.33959 | 34474 ft | 485 kts | 315° |
| 2026-04-21 04:33 | 36.05989 | -121.35655 | 34241 ft | 478 kts | 315° |
| 2026-04-21 04:33 | 36.08717 | -121.37931 | 33865 ft | 473 kts | 321° |
| 2026-04-21 04:33 | 36.11487 | -121.40067 | 33456 ft | 464 kts | 320° |
| 2026-04-21 04:34 | 36.14165 | -121.42167 | 33062 ft | 457 kts | 320° |
| 2026-04-21 04:34 | 36.16850 | -121.44279 | 32647 ft | 450 kts | 320° |
| 2026-04-21 04:34 | 36.19486 | -121.46334 | 32259 ft | 444 kts | 320° |
| 2026-04-21 04:34 | 36.22065 | -121.48341 | 31871 ft | 439 kts | 320° |
| 2026-04-21 04:35 | 36.24641 | -121.50356 | 31499 ft | 434 kts | 319° |
| 2026-04-21 04:35 | 36.27189 | -121.52356 | 31150 ft | 430 kts | 318° |
| 2026-04-21 04:35 | 36.29680 | -121.54311 | 30778 ft | 427 kts | 319° |
| 2026-04-21 04:35 | 36.32188 | -121.56277 | 30420 ft | 424 kts | 319° |
| 2026-04-21 04:36 | 36.34684 | -121.58225 | 30046 ft | 420 kts | 319° |
| 2026-04-21 04:36 | 36.37136 | -121.60164 | 29349 ft | 424 kts | 319° |
| 2026-04-21 04:36 | 36.39638 | -121.62136 | 28675 ft | 426 kts | 319° |
| 2026-04-21 04:36 | 36.42163 | -121.64113 | 28028 ft | 429 kts | 319° |
| 2026-04-21 04:37 | 36.44696 | -121.66104 | 27394 ft | 432 kts | 319° |
| 2026-04-21 04:37 | 36.47215 | -121.68088 | 26776 ft | 433 kts | 319° |
| 2026-04-21 04:37 | 36.49775 | -121.70110 | 26158 ft | 435 kts | 319° |
| 2026-04-21 04:37 | 36.52331 | -121.72128 | 25554 ft | 435 kts | 319° |
| 2026-04-21 04:38 | 36.54891 | -121.74148 | 24962 ft | 434 kts | 320° |
| 2026-04-21 04:38 | 36.57418 | -121.76147 | 24287 ft | 437 kts | 320° |
| 2026-04-21 04:38 | 36.60023 | -121.78214 | 23620 ft | 440 kts | 320° |
| 2026-04-21 04:38 | 36.62617 | -121.80267 | 22867 ft | 442 kts | 319° |
| 2026-04-21 04:39 | 36.65222 | -121.82332 | 22091 ft | 443 kts | 320° |
| 2026-04-21 04:39 | 36.67805 | -121.84380 | 21333 ft | 444 kts | 320° |
| 2026-04-21 04:39 | 36.70426 | -121.86459 | 20589 ft | 444 kts | 320° |
| 2026-04-21 04:39 | 36.73068 | -121.88400 | 19856 ft | 450 kts | 327° |
| 2026-04-21 04:40 | 36.76008 | -121.89865 | 19136 ft | 457 kts | 338° |
| 2026-04-21 04:40 | 36.79114 | -121.90816 | 18443 ft | 460 kts | 344° |
| 2026-04-21 04:40 | 36.82241 | -121.91670 | 17674 ft | 459 kts | 344° |
| 2026-04-21 04:40 | 36.85356 | -121.92541 | 16890 ft | 458 kts | 343° |
| 2026-04-21 04:41 | 36.88468 | -121.93420 | 16124 ft | 456 kts | 344° |
| 2026-04-21 04:41 | 36.91528 | -121.94275 | 15388 ft | 454 kts | 344° |
| 2026-04-21 04:41 | 36.94592 | -121.95130 | 14675 ft | 446 kts | 344° |
| 2026-04-21 04:41 | 36.97518 | -121.96196 | 14088 ft | 433 kts | 339° |
| 2026-04-21 04:42 | 37.00374 | -121.97337 | 13379 ft | 431 kts | 339° |
| 2026-04-21 04:42 | 37.03247 | -121.98462 | 12601 ft | 432 kts | 339° |
| 2026-04-21 04:42 | 37.06109 | -121.99565 | 11838 ft | 423 kts | 339° |
| 2026-04-21 04:42 | 37.08853 | -122.00621 | 11090 ft | 412 kts | 339° |
| 2026-04-21 04:43 | 37.11557 | -122.01685 | 10316 ft | 402 kts | 339° |
| 2026-04-21 04:43 | 37.14188 | -122.02721 | 9450 ft | 387 kts | 338° |
| 2026-04-21 04:43 | 37.16724 | -122.03714 | 8481 ft | 377 kts | 339° |
| 2026-04-21 04:43 | 37.19195 | -122.04673 | 7477 ft | 370 kts | 339° |
| 2026-04-21 04:44 | 37.21640 | -122.05625 | 6491 ft | 362 kts | 340° |
| 2026-04-21 04:44 | 37.23983 | -122.06555 | 5903 ft | 345 kts | 339° |
| 2026-04-21 04:44 | 37.26177 | -122.07406 | 5906 ft | 313 kts | 339° |
| 2026-04-21 04:44 | 37.28166 | -122.08226 | 5916 ft | 295 kts | 339° |
| 2026-04-21 04:45 | 37.30129 | -122.08965 | 5928 ft | 294 kts | 340° |
| 2026-04-21 04:45 | 37.32047 | -122.09712 | 5936 ft | 290 kts | 339° |
| 2026-04-21 04:45 | 37.34017 | -122.10342 | 5940 ft | 290 kts | 344° |
| 2026-04-21 04:45 | 37.36004 | -122.10912 | 5943 ft | 291 kts | 344° |
| 2026-04-21 04:46 | 37.37960 | -122.11483 | 5944 ft | 292 kts | 343° |
| 2026-04-21 04:46 | 37.39955 | -122.12061 | 5943 ft | 293 kts | 344° |
| 2026-04-21 04:46 | 37.41914 | -122.12631 | 5927 ft | 273 kts | 343° |
| 2026-04-21 04:46 | 37.43692 | -122.13140 | 5922 ft | 263 kts | 345° |
| 2026-04-21 04:47 | 37.45518 | -122.13656 | 5929 ft | 273 kts | 344° |
| 2026-04-21 04:47 | 37.47367 | -122.14211 | 5145 ft | 269 kts | 348° |
| 2026-04-21 04:47 | 37.49173 | -122.14592 | 4356 ft | 254 kts | 353° |
| 2026-04-21 04:47 | 37.50863 | -122.14746 | 3876 ft | 228 kts | 359° |
| 2026-04-21 04:48 | 37.52428 | -122.14698 | 3358 ft | 227 kts | 356° |
| 2026-04-21 04:48 | 37.53590 | -122.15670 | 3057 ft | 197 kts | 290° |
| 2026-04-21 04:48 | 37.53898 | -122.17287 | 2935 ft | 182 kts | 287° |
| 2026-04-21 04:48 | 37.54425 | -122.18688 | 2942 ft | 173 kts | 294° |
| 2026-04-21 04:49 | 37.54906 | -122.19998 | 2939 ft | 169 kts | 295° |
| 2026-04-21 04:49 | 37.55451 | -122.21317 | 2697 ft | 168 kts | 298° |
| 2026-04-21 04:49 | 37.55990 | -122.22635 | 2466 ft | 167 kts | 292° |
| 2026-04-21 04:49 | 37.56527 | -122.23932 | 2174 ft | 170 kts | 290° |
| 2026-04-21 04:50 | 37.57023 | -122.25322 | 1851 ft | 172 kts | 292° |
| 2026-04-21 04:50 | 37.57544 | -122.26605 | 1753 ft | 163 kts | 292° |
| 2026-04-21 04:50 | 37.58026 | -122.27890 | 1610 ft | 159 kts | 292° |
| 2026-04-21 04:50 | 37.58566 | -122.29111 | 1366 ft | 163 kts | 296° |
| 2026-04-21 04:51 | 37.59093 | -122.30320 | 1099 ft | 145 kts | 296° |
| 2026-04-21 04:51 | 37.59526 | -122.31357 | 874 ft | 129 kts | 295° |
| 2026-04-21 04:51 | 37.59932 | -122.32334 | 666 ft | 123 kts | 296° |
| 2026-04-21 04:51 | 37.60325 | -122.33269 | 488 ft | 118 kts | 296° |
| 2026-04-21 04:52 | 37.60711 | -122.34195 | 360 ft | 120 kts | 296° |
| 2026-04-21 04:52 | 37.61109 | -122.35136 | 200 ft | 123 kts | 295° |
| 2026-04-21 04:52 | 37.61505 | -122.36075 | 31 ft | 117 kts | 294° |
| 2026-04-21 04:52 | 37.61833 | -122.36866 | 11 ft | 85 kts | 296° |
| 2026-04-21 04:53 | 37.62053 | -122.37379 | 10 ft | 48 kts | 300° |
| 2026-04-21 04:53 | 37.62127 | -122.37707 | 14 ft | 29 kts | 240° |
| 2026-04-21 04:53 | 37.62040 | -122.37829 | 18 ft | 16 kts | 226° |
| 2026-04-21 04:53 | 37.61965 | -122.37940 | 16 ft | 17 kts | 228° |
| 2026-04-21 04:54 | 37.61865 | -122.37992 | 17 ft | 15 kts | 160° |
| 2026-04-21 04:54 | 37.61766 | -122.37948 | 13 ft | 17 kts | 172° |
| 2026-04-21 04:54 | 37.61645 | -122.37978 | 9 ft | 19 kts | 208° |
| 2026-04-21 04:54 | 37.61522 | -122.38061 | 8 ft | 21 kts | 207° |
| 2026-04-21 04:55 | 37.61397 | -122.38143 | 9 ft | 20 kts | 208° |
| 2026-04-21 04:55 | 37.61269 | -122.38229 | 10 ft | 20 kts | 207° |
| 2026-04-21 04:55 | 37.61147 | -122.38311 | 12 ft | 20 kts | 208° |
| 2026-04-21 04:55 | 37.61026 | -122.38389 | 12 ft | 16 kts | 218° |
| 2026-04-21 04:56 | 37.60941 | -122.38494 | 13 ft | 23 kts | 237° |
| 2026-04-21 04:56 | 37.60920 | -122.38642 | 11 ft | 8 kts | 298° |
| 2026-04-21 04:56 | 37.60978 | -122.38783 | 11 ft | 29 kts | 297° |
| 2026-04-21 04:56 | 37.61070 | -122.39017 | 12 ft | 22 kts | 295° |
| 2026-04-21 04:57 | 37.61144 | -122.39154 | 12 ft | 17 kts | 336° |
| 2026-04-21 04:57 | 37.61304 | -122.39219 | 11 ft | 20 kts | 349° |
| 2026-04-21 04:57 | 37.61346 | -122.39156 | 11 ft | 6 kts | 118° |
| 2026-04-21 04:57 | 37.61346 | -122.39155 | 11 ft | 0 kts | 118° |